createdAt,value
2018-04-18T00:02:11.994Z,6.37
2018-04-18T00:04:39.367Z,7.63
2018-04-18T00:07:06.768Z,5.77
2018-04-18T00:09:34.211Z,6.20
2018-04-18T00:12:01.583Z,5.13
2018-04-18T00:14:28.964Z,5.30
2018-04-18T00:16:56.335Z,5.60
2018-04-18T00:19:23.735Z,6.13
2018-04-18T00:21:51.141Z,4.90
2018-04-18T00:24:18.543Z,6.03
2018-04-18T00:26:46.122Z,5.30
2018-04-18T00:29:14.338Z,5.80
2018-04-18T00:31:41.720Z,6.10
2018-04-18T00:34:09.171Z,5.40
2018-04-18T00:36:36.578Z,5.53
2018-04-18T00:39:03.994Z,4.63
2018-04-18T00:41:31.497Z,5.53
2018-04-18T00:43:58.908Z,5.70
2018-04-18T00:46:26.314Z,5.33
2018-04-18T00:48:53.712Z,5.43
2018-04-18T00:51:21.097Z,5.20
2018-04-18T00:53:48.488Z,4.77
2018-04-18T00:56:16.002Z,5.37
2018-04-18T00:58:43.385Z,5.00
2018-04-18T01:01:10.759Z,6.70
2018-04-18T01:03:38.171Z,5.47
2018-04-18T01:06:05.559Z,6.17
2018-04-18T01:08:32.983Z,6.63
2018-04-18T01:11:00.385Z,6.80
2018-04-18T01:13:27.764Z,5.00
2018-04-18T01:15:55.173Z,5.40
2018-04-18T01:18:22.551Z,5.50
2018-04-18T01:20:49.950Z,4.27
2018-04-18T01:23:17.440Z,5.13
2018-04-18T01:25:44.856Z,4.50
2018-04-18T01:28:12.233Z,4.83
2018-04-18T01:30:39.614Z,5.37
2018-04-18T01:33:07.028Z,4.73
2018-04-18T01:35:34.427Z,5.90
2018-04-18T01:38:01.811Z,5.37
2018-04-18T01:40:29.417Z,7.23
2018-04-18T01:42:57.125Z,5.07
2018-04-18T01:45:24.838Z,5.90
2018-04-18T01:47:52.283Z,6.87
2018-04-18T01:50:20.347Z,6.60
2018-04-18T01:52:47.742Z,5.60
2018-04-18T01:55:15.128Z,7.30
2018-04-18T01:57:42.552Z,6.63
2018-04-18T02:00:10.146Z,6.33
2018-04-18T02:02:37.516Z,5.17
2018-04-18T02:05:04.902Z,5.30
2018-04-18T02:07:32.326Z,5.90
2018-04-18T02:09:59.738Z,6.87
2018-04-18T02:12:27.124Z,6.80
2018-04-18T02:14:54.654Z,6.03
2018-04-18T02:17:22.923Z,5.57
2018-04-18T02:19:50.330Z,6.40
2018-04-18T02:22:17.740Z,5.53
2018-04-18T02:24:45.134Z,5.40
2018-04-18T02:27:12.636Z,5.87
2018-04-18T02:29:40.252Z,6.97
2018-04-18T02:32:07.713Z,5.77
2018-04-18T02:34:35.197Z,5.57
2018-04-18T02:37:02.617Z,8.50
2018-04-18T02:39:30.028Z,7.03
2018-04-18T02:41:57.712Z,7.37
2018-04-18T02:44:26.407Z,8.47
2018-04-18T02:46:53.838Z,9.30
2018-04-18T02:49:21.287Z,6.10
2018-04-18T02:51:48.795Z,6.37
2018-04-18T02:54:16.528Z,7.17
2018-04-18T02:56:44.312Z,6.13
2018-04-18T02:59:11.690Z,7.40
2018-04-18T03:01:39.102Z,5.60
2018-04-18T03:04:06.493Z,5.77
2018-04-18T03:06:33.956Z,6.47
2018-04-18T03:09:01.331Z,5.87
2018-04-18T03:11:28.733Z,7.17
2018-04-18T03:13:56.206Z,9.53
2018-04-18T03:16:23.590Z,7.53
2018-04-18T03:18:51.112Z,19.50
2018-04-18T03:21:18.503Z,11.57
2018-04-18T03:23:46.854Z,11.50
2018-04-18T03:26:14.225Z,8.67
2018-04-18T03:28:41.797Z,8.63
2018-04-18T03:31:09.235Z,10.60
2018-04-18T03:33:36.707Z,10.30
2018-04-18T03:36:04.079Z,8.60
2018-04-18T03:38:31.522Z,7.37
2018-04-18T03:40:58.962Z,8.30
2018-04-18T03:43:26.434Z,12.10
2018-04-18T03:45:53.853Z,12.90
2018-04-18T03:48:21.273Z,16.27
2018-04-18T03:50:48.656Z,13.53
2018-04-18T03:53:16.127Z,15.37
2018-04-18T03:55:44.096Z,15.00
2018-04-18T03:58:11.506Z,17.53
2018-04-18T04:00:38.921Z,17.13
2018-04-18T04:03:06.359Z,12.47
2018-04-18T04:05:33.743Z,9.63
2018-04-18T04:08:01.200Z,9.17
2018-04-18T04:10:28.613Z,13.53
2018-04-18T04:12:56.131Z,35.07
2018-04-18T04:15:23.522Z,34.13
2018-04-18T04:18:02.627Z,34.73
2018-04-18T04:20:41.808Z,28.40
2018-04-18T04:23:20.856Z,23.10
2018-04-18T04:25:48.250Z,20.00
2018-04-18T04:28:15.759Z,17.43
2018-04-18T04:30:43.183Z,14.60
2018-04-18T04:33:10.578Z,13.60
2018-04-18T04:35:37.988Z,11.80
2018-04-18T04:38:05.392Z,13.93
2018-04-18T04:40:32.786Z,13.47
2018-04-18T04:43:00.171Z,13.00
2018-04-18T04:45:28.482Z,12.13
2018-04-18T04:47:55.879Z,12.50
2018-04-18T04:50:23.300Z,12.67
2018-04-18T04:52:50.707Z,12.20
2018-04-18T04:55:18.107Z,17.50
2018-04-18T04:57:46.413Z,15.77
2018-04-18T05:00:13.807Z,11.73
2018-04-18T05:02:41.220Z,10.33
2018-04-18T05:05:08.606Z,10.77
2018-04-18T05:07:36.011Z,9.17
2018-04-18T05:10:03.403Z,10.63
2018-04-18T05:12:30.800Z,8.57
2018-04-18T05:14:58.283Z,9.40
2018-04-18T05:17:25.691Z,8.17
2018-04-18T05:19:53.086Z,8.00
2018-04-18T05:22:20.603Z,14.83
2018-04-18T05:24:48.010Z,9.10
2018-04-18T05:27:15.378Z,8.30
2018-04-18T05:29:42.762Z,11.63
2018-04-18T05:32:10.155Z,9.27
2018-04-18T05:34:37.976Z,8.13
2018-04-18T05:37:05.656Z,7.40
2018-04-18T05:39:33.111Z,8.53
2018-04-18T05:42:00.487Z,8.47
2018-04-18T05:44:28.003Z,8.40
2018-04-18T05:46:55.381Z,8.43
2018-04-18T05:49:23.318Z,8.23
2018-04-18T05:51:50.747Z,9.37
2018-04-18T05:54:18.392Z,8.63
2018-04-18T05:56:46.000Z,9.60
2018-04-18T05:59:13.409Z,8.23
2018-04-18T06:01:40.852Z,8.83
2018-04-18T06:04:08.281Z,11.40
2018-04-18T06:06:35.747Z,9.20
2018-04-18T06:09:05.536Z,8.07
2018-04-18T06:11:32.963Z,8.70
2018-04-18T06:14:00.444Z,7.70
2018-04-18T06:16:27.850Z,8.73
2018-04-18T06:18:55.250Z,8.07
2018-04-18T06:21:22.701Z,8.83
2018-04-18T06:23:50.067Z,9.37
2018-04-18T06:26:17.552Z,11.17
2018-04-18T06:28:44.906Z,8.40
2018-04-18T06:31:13.202Z,8.23
2018-04-18T06:33:40.630Z,10.57
2018-04-18T06:36:07.971Z,9.30
2018-04-18T06:38:35.625Z,7.80
2018-04-18T06:41:02.995Z,8.93
2018-04-18T06:43:30.390Z,8.53
2018-04-18T06:45:57.946Z,8.23
2018-04-18T06:48:25.315Z,59.27
2018-04-18T06:50:52.707Z,8.37
2018-04-18T06:53:20.143Z,9.07
2018-04-18T06:55:47.533Z,8.23
2018-04-18T06:58:14.926Z,8.07
2018-04-18T07:00:42.392Z,7.93
2018-04-18T07:03:09.860Z,8.57
2018-04-18T07:05:37.235Z,7.67
2018-04-18T07:08:04.894Z,7.77
2018-04-18T07:10:32.261Z,9.67
2018-04-18T07:13:04.525Z,7.33
2018-04-18T07:15:34.845Z,11.83
2018-04-18T07:18:02.438Z,7.57
2018-04-18T07:20:29.829Z,8.57
2018-04-18T07:22:57.219Z,7.27
2018-04-18T07:25:24.650Z,7.20
2018-04-18T07:27:52.078Z,8.20
2018-04-18T07:30:19.461Z,9.33
2018-04-18T07:32:46.899Z,8.90
2018-04-18T07:35:14.280Z,7.57
2018-04-18T07:37:41.668Z,7.83
2018-04-18T07:40:09.081Z,7.40
2018-04-18T07:42:36.455Z,6.70
2018-04-18T07:45:03.836Z,9.37
2018-04-18T07:47:31.227Z,8.93
2018-04-18T07:49:58.680Z,8.23
2018-04-18T07:52:26.091Z,7.17
2018-04-18T07:54:53.503Z,9.20
2018-04-18T07:57:20.895Z,7.67
2018-04-18T07:59:48.347Z,6.33
2018-04-18T08:02:15.720Z,9.20
2018-04-18T08:04:43.133Z,8.50
2018-04-18T08:07:10.614Z,9.00
2018-04-18T08:09:38.092Z,6.70
2018-04-18T08:12:05.502Z,5.90
2018-04-18T08:14:32.899Z,5.63
2018-04-18T08:17:00.343Z,6.23
2018-04-18T08:19:27.847Z,5.80
2018-04-18T08:21:55.251Z,7.23
2018-04-18T08:24:22.626Z,8.30
2018-04-18T08:26:50.120Z,5.70
2018-04-18T08:29:17.535Z,5.67
2018-04-18T08:31:44.909Z,7.00
2018-04-18T08:34:12.420Z,5.10
2018-04-18T08:36:39.806Z,5.67
2018-04-18T08:39:07.211Z,5.73
2018-04-18T08:41:34.600Z,5.13
2018-04-18T08:44:02.165Z,7.67
2018-04-18T08:46:29.562Z,5.70
2018-04-18T08:48:56.971Z,5.17
2018-04-18T08:51:24.375Z,6.47
2018-04-18T08:53:51.790Z,5.73
2018-04-18T08:56:19.237Z,6.83
2018-04-18T08:58:46.619Z,5.73
2018-04-18T09:01:14.378Z,6.13
2018-04-18T09:03:41.854Z,5.17
2018-04-18T09:06:09.260Z,4.97
2018-04-18T09:08:36.738Z,5.20
2018-04-18T09:11:04.173Z,3.83
2018-04-18T09:13:31.586Z,7.83
2018-04-18T09:15:59.084Z,6.70
2018-04-18T09:18:26.494Z,6.63
2018-04-18T09:20:53.898Z,6.83
2018-04-18T09:23:21.284Z,6.53
2018-04-18T09:25:48.718Z,5.03
2018-04-18T09:28:16.069Z,3.67
2018-04-18T09:30:43.493Z,5.30
2018-04-18T09:33:10.879Z,5.17
2018-04-18T09:35:38.265Z,4.10
2018-04-18T09:38:05.684Z,4.80
2018-04-18T09:40:33.123Z,4.63
2018-04-18T09:43:00.603Z,5.27
2018-04-18T09:45:28.718Z,4.63
2018-04-18T09:47:56.125Z,4.93
2018-04-18T09:50:23.480Z,7.30
2018-04-18T09:52:50.890Z,4.63
2018-04-18T09:55:18.255Z,5.20
2018-04-18T09:57:46.178Z,4.50
2018-04-18T10:00:13.581Z,6.23
2018-04-18T10:02:41.022Z,4.00
2018-04-18T10:05:08.387Z,4.13
2018-04-18T10:07:35.830Z,7.73
2018-04-18T10:10:03.204Z,5.33
2018-04-18T10:12:30.602Z,6.93
2018-04-18T10:14:58.014Z,4.90
2018-04-18T10:17:25.430Z,6.60
2018-04-18T10:19:52.842Z,5.63
2018-04-18T10:22:20.632Z,7.63
2018-04-18T10:24:48.139Z,5.50
2018-04-18T10:27:15.586Z,4.93
2018-04-18T10:29:43.093Z,4.17
2018-04-18T10:32:10.658Z,5.73
2018-04-18T10:34:38.064Z,4.40
2018-04-18T10:37:05.434Z,5.30
2018-04-18T10:39:34.576Z,11.70
2018-04-18T10:42:01.966Z,4.67
2018-04-18T10:44:29.472Z,3.80
2018-04-18T10:46:56.849Z,4.10
2018-04-18T10:49:24.311Z,5.20
2018-04-18T10:51:51.766Z,5.30
2018-04-18T10:54:19.312Z,3.37
2018-04-18T10:56:47.181Z,4.27
2018-04-18T10:59:14.607Z,4.13
2018-04-18T11:01:42.398Z,4.20
2018-04-18T11:04:09.808Z,5.97
2018-04-18T11:06:37.193Z,2.87
2018-04-18T11:09:05.394Z,5.00
2018-04-18T11:11:32.813Z,7.20
2018-04-18T11:14:00.317Z,4.00
2018-04-18T11:16:27.720Z,4.10
2018-04-18T11:18:55.098Z,4.23
2018-04-18T11:21:22.506Z,3.37
2018-04-18T11:23:49.882Z,4.23
2018-04-18T11:26:17.325Z,4.70
2018-04-18T11:28:44.711Z,4.10
2018-04-18T11:31:12.141Z,3.40
2018-04-18T11:33:39.557Z,5.33
2018-04-18T11:36:06.983Z,5.00
2018-04-18T11:38:34.379Z,4.30
2018-04-18T11:41:01.767Z,3.63
2018-04-18T11:43:29.149Z,3.00
2018-04-18T11:45:56.539Z,2.80
2018-04-18T11:48:23.998Z,2.60
2018-04-18T11:50:51.425Z,2.60
2018-04-18T11:53:18.819Z,2.00
2018-04-18T11:55:46.198Z,3.77
2018-04-18T11:58:13.579Z,4.00
2018-04-18T12:00:40.973Z,3.07
2018-04-18T12:03:09.005Z,3.00
2018-04-18T12:05:36.454Z,4.37
2018-04-18T12:08:03.843Z,5.33
2018-04-18T12:10:31.243Z,2.50
2018-04-18T12:12:58.643Z,3.63
2018-04-18T12:15:26.073Z,2.60
2018-04-18T12:17:53.670Z,5.07
2018-04-18T12:20:21.127Z,5.37
2018-04-18T12:22:48.969Z,3.20
2018-04-18T12:25:16.346Z,3.90
2018-04-18T12:27:43.885Z,3.40
2018-04-18T12:30:11.406Z,5.50
2018-04-18T12:32:38.869Z,6.30
2018-04-18T12:35:06.301Z,4.33
2018-04-18T12:37:33.728Z,5.57
2018-04-18T12:40:01.510Z,2.60
2018-04-18T12:42:29.077Z,2.43
2018-04-18T12:44:56.528Z,3.63
2018-04-18T12:47:23.906Z,2.90
2018-04-18T12:49:52.220Z,4.03
2018-04-18T12:52:19.589Z,6.10
2018-04-18T12:54:47.035Z,4.37
2018-04-18T12:57:14.443Z,3.30
2018-04-18T12:59:41.843Z,5.20
2018-04-18T13:02:09.236Z,2.80
2018-04-18T13:04:36.623Z,3.85
2018-04-18T13:07:04.017Z,2.90
2018-04-18T13:09:32.553Z,2.78
2018-04-18T13:11:59.987Z,2.65
2018-04-18T13:14:27.515Z,2.97
2018-04-18T13:16:54.934Z,1.87
2018-04-18T13:19:26.287Z,2.28
2018-04-18T13:21:53.764Z,2.40
2018-04-18T13:24:21.320Z,2.53
2018-04-18T13:26:48.732Z,1.90
2018-04-18T13:29:16.130Z,3.03
2018-04-18T13:31:43.732Z,2.03
2018-04-18T13:34:11.143Z,4.80
2018-04-18T13:36:38.630Z,3.28
2018-04-18T13:39:06.071Z,4.55
2018-04-18T13:41:33.527Z,1.92
2018-04-18T13:44:02.014Z,4.68
2018-04-18T13:46:30.023Z,1.75
2018-04-18T13:48:57.947Z,3.03
2018-04-18T13:51:25.642Z,5.70
2018-04-18T13:53:53.955Z,2.55
2018-04-18T13:56:21.670Z,2.90
2018-04-18T13:58:49.607Z,2.87
2018-04-18T14:01:17.292Z,3.35
2018-04-18T14:03:44.976Z,2.03
2018-04-18T14:06:12.404Z,3.17
2018-04-18T14:08:41.436Z,2.70
2018-04-18T14:11:09.002Z,2.78
2018-04-18T14:13:36.511Z,4.60
2018-04-18T14:16:04.052Z,1.62
2018-04-18T14:18:31.508Z,2.20
2018-04-18T14:20:58.997Z,6.35
2018-04-18T14:23:26.452Z,3.42
2018-04-18T14:25:53.833Z,2.05
2018-04-18T14:28:21.489Z,3.28
2018-04-18T14:30:48.926Z,2.67
2018-04-18T14:33:16.361Z,3.17
2018-04-18T14:35:43.790Z,2.67
2018-04-18T14:38:11.258Z,5.68
2018-04-18T14:40:40.173Z,2.05
2018-04-18T14:43:07.790Z,2.17
2018-04-18T14:45:35.238Z,2.83
2018-04-18T14:48:02.864Z,2.90
2018-04-18T14:50:30.516Z,5.25
2018-04-18T14:52:57.966Z,2.87
2018-04-18T14:55:25.341Z,2.45
2018-04-18T14:57:52.782Z,5.30
2018-04-18T15:00:20.184Z,4.00
2018-04-18T15:02:47.873Z,1.80
2018-04-18T15:05:15.313Z,1.77
2018-04-18T15:07:42.860Z,5.30
2018-04-18T15:10:10.234Z,2.45
2018-04-18T15:12:37.731Z,3.50
2018-04-18T15:15:05.103Z,3.08
2018-04-18T15:17:32.630Z,2.15
2018-04-18T15:20:00.104Z,6.32
2018-04-18T15:22:27.670Z,4.57
2018-04-18T15:24:55.047Z,4.90
2018-04-18T15:27:22.456Z,4.43
2018-04-18T15:29:49.915Z,2.60
2018-04-18T15:32:17.332Z,2.90
2018-04-18T15:34:44.728Z,2.35
2018-04-18T15:37:12.147Z,3.00
2018-04-18T15:39:39.591Z,2.40
2018-04-18T15:42:06.984Z,3.53
2018-04-18T15:44:34.514Z,5.37
2018-04-18T15:47:01.837Z,2.08
2018-04-18T15:49:29.270Z,2.62
2018-04-18T15:51:56.975Z,3.65
2018-04-18T15:54:24.363Z,3.30
2018-04-18T15:56:51.774Z,2.83
2018-04-18T15:59:19.175Z,2.60
2018-04-18T16:01:46.630Z,4.22
2018-04-18T16:04:15.010Z,3.87
2018-04-18T16:06:42.570Z,5.65
2018-04-18T16:09:09.985Z,2.33
2018-04-18T16:11:37.388Z,6.20
2018-04-18T16:14:04.769Z,2.87
2018-04-18T16:16:32.161Z,4.53
2018-04-18T16:18:59.577Z,5.07
2018-04-18T16:21:27.004Z,3.70
2018-04-18T16:23:54.428Z,2.50
2018-04-18T16:26:21.949Z,3.15
2018-04-18T16:28:49.422Z,4.28
2018-04-18T16:31:17.114Z,6.22
2018-04-18T16:33:44.516Z,3.50
2018-04-18T16:36:11.962Z,2.65
2018-04-18T16:38:46.213Z,2.83
2018-04-18T16:41:13.609Z,5.65
2018-04-18T16:43:44.307Z,7.33
2018-04-18T16:46:11.700Z,3.03
2018-04-18T16:48:39.484Z,4.30
2018-04-18T16:51:06.946Z,4.23
2018-04-18T16:53:34.339Z,3.47
2018-04-18T16:56:01.710Z,2.60
2018-04-18T16:58:29.109Z,3.47
2018-04-18T17:00:56.505Z,5.20
2018-04-18T17:03:23.975Z,4.60
2018-04-18T17:05:51.414Z,4.47
2018-04-18T17:08:18.836Z,2.73
2018-04-18T17:10:46.226Z,4.87
2018-04-18T17:13:13.617Z,5.93
2018-04-18T17:15:41.123Z,3.10
2018-04-18T17:18:08.765Z,3.43
2018-04-18T17:20:40.859Z,3.90
2018-04-18T17:23:13.947Z,3.80
2018-04-18T17:25:41.566Z,4.80
2018-04-18T17:28:08.943Z,3.73
2018-04-18T17:30:36.356Z,4.60
2018-04-18T17:33:03.798Z,4.90
2018-04-18T17:35:31.186Z,3.37
2018-04-18T17:37:58.567Z,7.30
2018-04-18T17:40:25.951Z,3.73
2018-04-18T17:42:53.347Z,5.20
2018-04-18T17:45:20.739Z,6.30
2018-04-18T17:47:48.190Z,3.50
2018-04-18T17:50:27.221Z,4.37
2018-04-18T17:53:01.654Z,5.67
2018-04-18T17:55:31.270Z,4.13
2018-04-18T17:57:58.702Z,8.43
2018-04-18T18:00:26.099Z,5.23
2018-04-18T18:02:53.645Z,5.93
2018-04-18T18:05:21.081Z,10.17
2018-04-18T18:07:48.511Z,11.77
2018-04-18T18:10:15.908Z,13.73
2018-04-18T18:12:43.378Z,9.53
2018-04-18T18:15:10.784Z,9.97
2018-04-18T18:17:38.208Z,14.00
2018-04-18T18:37:40.439Z,14.63
2018-04-18T18:40:07.851Z,17.50
2018-04-18T18:42:35.268Z,20.63
2018-04-18T18:45:02.666Z,13.37
2018-04-18T18:47:30.082Z,11.30
2018-04-18T18:49:57.483Z,11.63
2018-04-18T18:52:24.979Z,13.27
2018-04-18T18:54:52.905Z,15.47
2018-04-18T18:57:20.320Z,14.07
2018-04-18T18:59:47.699Z,11.90
2018-04-18T19:02:15.109Z,10.57
2018-04-18T19:04:42.486Z,14.43
2018-04-18T19:07:11.563Z,10.17
2018-04-18T19:09:39.005Z,9.73
2018-04-18T19:12:06.429Z,10.67
2018-04-18T19:14:33.835Z,10.03
2018-04-18T19:17:01.254Z,11.67
2018-04-18T19:19:28.917Z,11.80
2018-04-18T19:21:57.188Z,11.20
2018-04-18T19:24:24.588Z,11.43
2018-04-18T19:26:52.014Z,12.23
2018-04-18T19:29:19.411Z,13.40
2018-04-18T19:31:46.844Z,18.57
2018-04-18T19:34:14.241Z,16.43
2018-04-18T19:36:42.882Z,15.53
2018-04-18T19:39:10.316Z,14.43
2018-04-18T19:41:37.726Z,10.93
2018-04-18T19:44:05.131Z,13.60
2018-04-18T19:46:32.539Z,10.97
2018-04-18T19:48:59.939Z,10.97
2018-04-18T19:51:27.340Z,9.83
2018-04-18T19:53:54.732Z,11.77
2018-04-18T19:56:24.449Z,8.73
2018-04-18T19:58:51.830Z,8.43
2018-04-18T20:01:19.209Z,8.13
2018-04-18T20:03:46.582Z,9.77
2018-04-18T20:06:13.970Z,7.97
2018-04-18T20:08:41.330Z,8.07
2018-04-18T20:11:08.744Z,8.53
2018-04-18T20:13:36.379Z,6.80
2018-04-18T20:16:03.844Z,8.27
2018-04-18T20:18:31.208Z,8.23
2018-04-18T20:20:58.673Z,7.47
2018-04-18T20:23:26.070Z,7.63
2018-04-18T20:25:53.484Z,6.60
2018-04-18T20:28:20.884Z,7.73
2018-04-18T20:30:48.262Z,7.60
2018-04-18T20:33:15.723Z,6.47
2018-04-18T20:35:43.115Z,7.47
2018-04-18T20:38:10.739Z,6.13
2018-04-18T20:40:38.141Z,7.10
2018-04-18T20:43:05.526Z,16.30
2018-04-18T20:45:32.987Z,16.17
2018-04-18T20:48:01.237Z,10.67
2018-04-18T20:50:28.623Z,8.20
2018-04-18T20:52:56.002Z,8.17
2018-04-18T20:55:23.384Z,6.03
2018-04-18T20:57:50.761Z,14.63
2018-04-18T21:00:18.146Z,10.83
2018-04-18T21:02:45.919Z,12.13
2018-04-18T21:05:13.338Z,8.70
2018-04-18T21:07:40.725Z,13.40
2018-04-18T21:10:08.194Z,9.67
2018-04-18T21:12:35.987Z,6.63
2018-04-18T21:15:03.511Z,7.53
2018-04-18T21:17:30.977Z,6.03
2018-04-18T21:19:58.360Z,7.13
2018-04-18T21:22:25.751Z,10.33
2018-04-18T21:24:53.224Z,8.40
2018-04-18T21:27:20.707Z,7.17
2018-04-18T21:29:49.393Z,6.10
2018-04-18T21:32:17.024Z,5.80
2018-04-18T21:34:44.782Z,6.10
2018-04-18T21:37:13.212Z,6.40
2018-04-18T21:39:40.827Z,9.33
2018-04-18T21:42:08.593Z,5.50
2018-04-18T21:44:36.257Z,5.53
2018-04-18T21:47:03.980Z,6.13
2018-04-18T21:49:31.751Z,11.40
2018-04-18T21:51:59.748Z,5.80
2018-04-18T21:54:27.452Z,9.10
2018-04-18T21:56:55.175Z,6.40
2018-04-18T21:59:22.876Z,7.20
2018-04-18T22:01:50.599Z,5.20
2018-04-18T22:04:18.224Z,6.03
2018-04-18T22:06:46.237Z,6.17
2018-04-18T22:09:13.940Z,5.60
2018-04-18T22:11:41.697Z,5.50
2018-04-18T22:14:09.370Z,5.93
2018-04-18T22:16:37.054Z,6.03
2018-04-18T22:19:05.188Z,6.20
2018-04-18T22:21:32.589Z,6.10
2018-04-18T22:23:59.981Z,6.73
2018-04-18T22:26:27.415Z,6.20
2018-04-18T22:28:54.803Z,7.00
2018-04-18T22:31:22.238Z,7.60
2018-04-18T22:33:49.663Z,8.37
2018-04-18T22:36:17.044Z,8.77
2018-04-18T22:38:44.500Z,9.23
2018-04-18T22:41:12.313Z,9.20
2018-04-18T22:43:39.783Z,7.90
2018-04-18T22:46:08.232Z,9.00
2018-04-18T22:48:35.655Z,7.50
2018-04-18T22:51:03.140Z,7.60
2018-04-18T22:53:30.528Z,7.30
2018-04-18T22:55:57.932Z,7.40
2018-04-18T22:58:25.552Z,6.50
2018-04-18T23:00:53.204Z,7.23
2018-04-18T23:03:20.690Z,7.60
2018-04-18T23:05:48.090Z,6.10
2018-04-18T23:08:15.537Z,5.80
2018-04-18T23:10:42.920Z,6.80
2018-04-18T23:13:11.466Z,7.50
2018-04-18T23:15:38.851Z,5.53
2018-04-18T23:18:06.235Z,5.80
2018-04-18T23:20:33.707Z,6.80
2018-04-18T23:23:01.105Z,5.90
2018-04-18T23:25:28.480Z,6.47
2018-04-18T23:27:55.910Z,5.90
2018-04-18T23:30:23.292Z,6.20
2018-04-18T23:32:50.697Z,5.70
2018-04-18T23:35:18.103Z,5.80
2018-04-18T23:37:45.503Z,5.53
2018-04-18T23:40:13.598Z,5.70
2018-04-18T23:42:41.074Z,6.40
2018-04-18T23:45:08.509Z,5.37
2018-04-18T23:47:35.900Z,5.60
2018-04-18T23:50:03.302Z,5.93
2018-04-18T23:52:30.672Z,5.50
2018-04-18T23:54:58.055Z,5.33
2018-04-18T23:57:25.726Z,6.30
2018-04-18T23:59:53.108Z,5.40
